createdAt,value
2019-06-26T00:00:01.904Z,12.30
2019-06-26T00:01:07.731Z,38.10
2019-06-26T00:02:11.959Z,38.20
2019-06-26T00:03:16.764Z,19.12
2019-06-26T00:04:21.024Z,20.52
2019-06-26T00:05:25.831Z,24.07
2019-06-26T00:06:30.068Z,18.75
2019-06-26T00:07:34.880Z,16.12
2019-06-26T00:08:39.120Z,30.43
2019-06-26T00:09:43.964Z,42.62
2019-06-26T00:10:48.168Z,18.60
2019-06-26T00:11:53.030Z,16.50
2019-06-26T00:12:57.278Z,23.83
2019-06-26T00:14:02.131Z,18.02
2019-06-26T00:15:06.622Z,19.30
2019-06-26T00:16:11.431Z,17.87
2019-06-26T00:17:15.661Z,27.67
2019-06-26T00:18:20.477Z,21.57
2019-06-26T00:19:25.013Z,21.00
2019-06-26T00:20:29.847Z,41.63
2019-06-26T00:21:34.072Z,38.70
2019-06-26T00:22:38.884Z,38.02
2019-06-26T00:23:43.118Z,30.10
2019-06-26T00:24:47.965Z,20.08
2019-06-26T00:25:52.210Z,16.40
2019-06-26T00:26:57.018Z,22.13
2019-06-26T00:28:01.261Z,32.78
2019-06-26T00:29:06.085Z,16.00
2019-06-26T00:30:10.755Z,14.33
2019-06-26T00:31:15.579Z,24.90
2019-06-26T00:32:19.819Z,17.98
2019-06-26T00:33:24.637Z,15.00
2019-06-26T00:34:28.890Z,69.07
2019-06-26T00:35:33.741Z,39.78
2019-06-26T00:36:37.976Z,56.10
2019-06-26T00:37:42.819Z,26.00
2019-06-26T00:38:47.023Z,15.72
2019-06-26T00:39:51.876Z,13.98
2019-06-26T00:40:56.117Z,12.73
2019-06-26T00:42:00.941Z,26.35
2019-06-26T00:43:05.186Z,25.85
2019-06-26T00:44:09.977Z,39.35
2019-06-26T00:45:14.261Z,52.53
2019-06-26T00:46:19.104Z,19.30
2019-06-26T00:47:23.352Z,21.70
2019-06-26T00:48:28.177Z,37.88
2019-06-26T00:49:32.432Z,40.38
2019-06-26T00:50:37.256Z,18.20
2019-06-26T00:51:41.495Z,18.67
2019-06-26T00:52:46.292Z,32.55
2019-06-26T00:53:50.517Z,32.73
2019-06-26T00:54:55.357Z,27.93
2019-06-26T00:55:59.584Z,16.32
2019-06-26T00:57:04.417Z,24.87
2019-06-26T00:58:08.640Z,54.80
2019-06-26T00:59:13.466Z,19.57
2019-06-26T01:00:17.733Z,17.40
2019-06-26T01:01:22.540Z,20.62
2019-06-26T01:02:26.774Z,18.55
2019-06-26T01:03:31.571Z,16.30
2019-06-26T01:04:39.230Z,38.15
2019-06-26T01:05:44.065Z,17.17
2019-06-26T01:06:48.280Z,23.47
2019-06-26T01:07:53.101Z,27.00
2019-06-26T01:08:57.323Z,16.73
2019-06-26T01:10:02.222Z,16.73
2019-06-26T01:11:06.485Z,53.17
2019-06-26T01:12:11.332Z,18.73
2019-06-26T01:13:15.551Z,20.97
2019-06-26T01:14:20.365Z,17.57
2019-06-26T01:15:24.632Z,20.95
2019-06-26T01:16:29.580Z,28.35
2019-06-26T01:17:33.819Z,26.15
2019-06-26T01:18:38.636Z,16.85
2019-06-26T01:19:42.863Z,17.45
2019-06-26T01:20:47.704Z,23.80
2019-06-26T01:21:51.935Z,17.98
2019-06-26T01:22:56.748Z,26.12
2019-06-26T01:24:00.984Z,18.30
2019-06-26T01:25:05.824Z,18.40
2019-06-26T01:26:10.089Z,16.32
2019-06-26T01:27:14.905Z,19.77
2019-06-26T01:28:19.132Z,18.77
2019-06-26T01:29:23.954Z,17.17
2019-06-26T01:30:28.208Z,16.82
2019-06-26T01:31:33.021Z,17.12
2019-06-26T01:32:37.255Z,25.05
2019-06-26T01:33:42.077Z,25.77
2019-06-26T01:34:46.414Z,20.05
2019-06-26T01:35:51.326Z,19.30
2019-06-26T01:36:55.551Z,32.93
2019-06-26T01:38:00.420Z,17.82
2019-06-26T01:39:05.920Z,16.70
2019-06-26T01:40:10.727Z,16.73
2019-06-26T01:41:14.983Z,22.98
2019-06-26T01:42:19.888Z,18.98
2019-06-26T01:43:24.113Z,20.75
2019-06-26T01:44:29.122Z,17.57
2019-06-26T01:45:33.545Z,18.30
2019-06-26T01:46:38.345Z,17.65
2019-06-26T01:47:42.575Z,16.80
2019-06-26T01:48:47.391Z,18.15
2019-06-26T01:49:51.633Z,19.07
2019-06-26T01:50:56.455Z,33.67
2019-06-26T01:52:00.691Z,20.62
2019-06-26T01:53:05.500Z,20.02
2019-06-26T01:54:09.735Z,21.33
2019-06-26T01:55:14.542Z,27.62
2019-06-26T01:56:18.800Z,21.70
2019-06-26T01:57:23.683Z,22.13
2019-06-26T01:58:27.941Z,21.12
2019-06-26T01:59:32.768Z,19.00
2019-06-26T02:00:37.002Z,19.70
2019-06-26T02:01:41.848Z,20.88
2019-06-26T02:02:46.080Z,39.27
2019-06-26T02:03:50.905Z,21.35
2019-06-26T02:04:55.124Z,18.65
2019-06-26T02:05:59.963Z,19.62
2019-06-26T02:07:04.214Z,17.50
2019-06-26T02:08:09.031Z,21.57
2019-06-26T02:09:13.250Z,22.75
2019-06-26T02:10:18.069Z,19.98
2019-06-26T02:11:22.337Z,20.37
2019-06-26T02:12:27.223Z,23.52
2019-06-26T02:13:31.573Z,20.65
2019-06-26T02:14:36.373Z,21.15
2019-06-26T02:15:40.599Z,21.10
2019-06-26T02:16:45.439Z,21.80
2019-06-26T02:17:49.667Z,20.40
2019-06-26T02:18:57.726Z,20.65
2019-06-26T02:20:02.087Z,24.40
2019-06-26T02:21:06.864Z,31.75
2019-06-26T02:22:11.174Z,20.68
2019-06-26T02:23:15.976Z,22.15
2019-06-26T02:24:20.219Z,21.42
2019-06-26T02:25:25.034Z,22.02
2019-06-26T02:26:29.291Z,33.73
2019-06-26T02:27:34.115Z,22.00
2019-06-26T02:28:38.339Z,25.50
2019-06-26T02:29:43.148Z,23.83
2019-06-26T02:30:47.377Z,21.05
2019-06-26T02:31:52.215Z,21.15
2019-06-26T02:32:56.436Z,27.42
2019-06-26T02:34:01.257Z,26.25
2019-06-26T02:35:09.316Z,21.70
2019-06-26T02:36:12.131Z,21.50
2019-06-26T02:37:16.393Z,21.02
2019-06-26T02:38:21.284Z,29.45
2019-06-26T02:39:25.525Z,21.40
2019-06-26T02:40:30.342Z,22.73
2019-06-26T02:41:34.764Z,22.07
2019-06-26T02:42:39.612Z,19.90
2019-06-26T02:43:43.831Z,20.40
2019-06-26T02:44:53.676Z,22.05
2019-06-26T02:45:54.561Z,22.27
2019-06-26T02:47:17.629Z,21.30
2019-06-26T02:48:05.273Z,25.50
2019-06-26T02:49:10.088Z,20.48
2019-06-26T02:50:14.330Z,20.62
2019-06-26T02:51:19.181Z,19.65
2019-06-26T02:52:23.459Z,21.52
2019-06-26T02:53:28.275Z,20.27
2019-06-26T02:54:32.505Z,20.15
2019-06-26T02:55:37.313Z,22.10
2019-06-26T02:56:41.541Z,20.52
2019-06-26T02:57:46.389Z,21.07
2019-06-26T02:58:50.605Z,21.23
2019-06-26T02:59:55.431Z,20.15
2019-06-26T03:00:59.633Z,21.82
2019-06-26T03:02:04.490Z,20.70
2019-06-26T03:03:08.704Z,21.42
2019-06-26T03:04:13.523Z,22.52
2019-06-26T03:05:17.764Z,22.85
2019-06-26T03:06:22.583Z,23.02
2019-06-26T03:07:26.832Z,21.15
2019-06-26T03:08:31.640Z,26.48
2019-06-26T03:09:35.868Z,22.10
2019-06-26T03:10:40.676Z,22.20
2019-06-26T03:11:44.964Z,21.87
2019-06-26T03:12:50.316Z,23.50
2019-06-26T03:13:54.532Z,27.32
2019-06-26T03:15:08.933Z,27.10
2019-06-26T03:16:05.222Z,22.73
2019-06-26T03:17:10.035Z,23.05
2019-06-26T03:18:14.293Z,24.70
2019-06-26T03:19:19.111Z,26.80
2019-06-26T03:20:26.489Z,24.20
2019-06-26T03:21:31.314Z,23.00
2019-06-26T03:22:35.599Z,23.90
2019-06-26T03:23:40.416Z,23.35
2019-06-26T03:24:44.641Z,23.67
2019-06-26T03:25:49.451Z,21.37
2019-06-26T03:26:53.676Z,23.47
2019-06-26T03:27:58.523Z,24.50
2019-06-26T03:29:02.801Z,23.15
2019-06-26T03:30:07.625Z,22.35
2019-06-26T03:31:11.858Z,22.90
2019-06-26T03:32:16.671Z,22.32
2019-06-26T03:33:20.932Z,23.07
2019-06-26T03:34:25.748Z,26.10
2019-06-26T03:35:29.980Z,24.32
2019-06-26T03:36:34.791Z,29.42
2019-06-26T03:37:39.095Z,27.80
2019-06-26T03:38:43.895Z,26.25
2019-06-26T03:39:48.123Z,26.82
2019-06-26T03:40:52.944Z,27.87
2019-06-26T03:41:57.168Z,31.82
2019-06-26T03:43:02.031Z,30.43
2019-06-26T03:44:06.236Z,29.45
2019-06-26T03:45:24.590Z,30.05
2019-06-26T03:46:17.355Z,26.37
2019-06-26T03:47:22.172Z,30.32
2019-06-26T03:48:26.429Z,27.20
2019-06-26T03:49:31.232Z,26.02
2019-06-26T03:50:35.464Z,27.15
2019-06-26T03:51:40.342Z,27.67
2019-06-26T03:52:44.607Z,27.73
2019-06-26T03:53:49.451Z,28.07
2019-06-26T03:54:53.720Z,29.95
2019-06-26T03:55:58.533Z,28.00
2019-06-26T03:57:02.801Z,28.80
2019-06-26T03:58:07.655Z,27.40
2019-06-26T03:59:11.882Z,27.25
2019-06-26T04:00:20.155Z,25.92
2019-06-26T04:01:24.400Z,25.88
2019-06-26T04:02:29.239Z,27.10
2019-06-26T04:03:33.494Z,26.02
2019-06-26T04:04:38.309Z,25.75
2019-06-26T04:05:42.537Z,25.72
2019-06-26T04:06:47.335Z,26.07
2019-06-26T04:07:51.572Z,26.50
2019-06-26T04:08:56.411Z,26.27
2019-06-26T04:10:00.632Z,27.85
2019-06-26T04:11:05.447Z,29.82
2019-06-26T04:12:09.673Z,29.65
2019-06-26T04:13:14.546Z,27.98
2019-06-26T04:14:18.797Z,27.80
2019-06-26T04:15:23.608Z,27.93
2019-06-26T04:16:27.882Z,27.05
2019-06-26T04:17:32.698Z,27.67
2019-06-26T04:18:36.967Z,27.58
2019-06-26T04:19:41.775Z,28.45
2019-06-26T04:20:45.997Z,27.98
2019-06-26T04:21:50.813Z,28.15
2019-06-26T04:22:55.037Z,27.07
2019-06-26T04:23:59.879Z,28.25
2019-06-26T04:25:04.659Z,31.57
2019-06-26T04:26:09.475Z,29.57
2019-06-26T04:27:13.709Z,28.87
2019-06-26T04:28:18.518Z,28.10
2019-06-26T04:29:22.784Z,30.48
2019-06-26T04:30:27.600Z,32.38
2019-06-26T04:31:31.828Z,32.53
2019-06-26T04:32:36.663Z,33.42
2019-06-26T04:33:40.908Z,29.25
2019-06-26T04:34:45.719Z,34.40
2019-06-26T04:35:49.951Z,29.23
2019-06-26T04:36:54.771Z,27.73
2019-06-26T04:37:59.001Z,27.58
2019-06-26T04:39:03.875Z,28.55
2019-06-26T04:40:08.204Z,28.23
2019-06-26T04:41:13.032Z,29.35
2019-06-26T04:42:17.257Z,32.05
2019-06-26T04:43:22.099Z,31.65
2019-06-26T04:44:26.495Z,30.30
2019-06-26T04:45:31.332Z,32.13
2019-06-26T04:46:35.557Z,31.33
2019-06-26T04:47:40.358Z,34.90
2019-06-26T04:48:44.574Z,34.00
2019-06-26T04:49:49.408Z,31.40
2019-06-26T04:50:53.632Z,33.20
2019-06-26T04:51:58.448Z,32.73
2019-06-26T04:53:02.668Z,33.90
2019-06-26T04:54:07.504Z,34.55
2019-06-26T04:55:11.732Z,32.88
2019-06-26T04:56:16.544Z,31.95
2019-06-26T04:57:20.851Z,32.17
2019-06-26T04:58:25.700Z,34.08
2019-06-26T04:59:29.936Z,37.55
2019-06-26T05:00:34.747Z,33.25
2019-06-26T05:01:38.983Z,32.03
2019-06-26T05:02:43.799Z,31.57
2019-06-26T05:03:48.052Z,32.55
2019-06-26T05:04:52.896Z,32.35
2019-06-26T05:05:57.136Z,33.20
2019-06-26T05:07:02.021Z,33.00
2019-06-26T05:08:06.256Z,34.38
2019-06-26T05:09:11.076Z,31.95
2019-06-26T05:10:15.365Z,32.30
2019-06-26T05:11:20.173Z,31.42
2019-06-26T05:12:24.408Z,33.63
2019-06-26T05:13:29.201Z,34.85
2019-06-26T05:14:33.573Z,32.10
2019-06-26T05:15:38.588Z,38.00
2019-06-26T05:16:42.816Z,35.08
2019-06-26T05:17:47.651Z,35.50
2019-06-26T05:18:51.936Z,41.37
2019-06-26T05:19:56.767Z,39.95
2019-06-26T05:21:00.997Z,38.48
2019-06-26T05:22:05.868Z,40.20
2019-06-26T05:23:10.087Z,41.35
2019-06-26T05:24:14.906Z,43.90
2019-06-26T05:25:19.185Z,46.73
2019-06-26T05:26:23.971Z,47.73
2019-06-26T05:27:28.248Z,47.20
2019-06-26T05:28:33.056Z,45.92
2019-06-26T05:29:37.324Z,43.52
2019-06-26T05:30:42.211Z,47.05
2019-06-26T05:31:46.472Z,43.42
2019-06-26T05:32:51.324Z,46.05
2019-06-26T05:33:55.544Z,52.60
2019-06-26T05:35:00.390Z,53.48
2019-06-26T05:36:04.848Z,53.40
2019-06-26T05:37:09.665Z,51.45
2019-06-26T05:38:13.897Z,51.90
2019-06-26T05:39:18.701Z,51.37
2019-06-26T05:40:22.988Z,49.42
2019-06-26T05:41:27.888Z,48.63
2019-06-26T05:42:32.116Z,49.80
2019-06-26T05:43:36.924Z,46.35
2019-06-26T05:44:41.203Z,52.45
2019-06-26T05:45:46.123Z,51.50
2019-06-26T05:46:50.377Z,50.43
2019-06-26T05:47:55.160Z,50.85
2019-06-26T05:48:59.497Z,52.60
2019-06-26T05:50:04.498Z,56.28
2019-06-26T05:51:08.729Z,51.85
2019-06-26T05:52:16.506Z,53.25
2019-06-26T05:53:19.403Z,51.53
2019-06-26T05:54:24.219Z,54.85
2019-06-26T05:55:28.490Z,53.98
2019-06-26T05:56:33.304Z,55.83
2019-06-26T05:57:37.528Z,52.50
2019-06-26T05:58:42.340Z,54.42
2019-06-26T05:59:46.557Z,56.10
2019-06-26T06:00:51.399Z,56.90
2019-06-26T06:01:55.721Z,57.58
2019-06-26T06:03:00.532Z,56.73
2019-06-26T06:04:04.798Z,55.00
2019-06-26T06:05:10.370Z,54.83
2019-06-26T06:06:14.616Z,53.28
2019-06-26T06:07:19.435Z,53.45
2019-06-26T06:08:23.662Z,52.30
2019-06-26T06:09:28.510Z,53.00
2019-06-26T06:10:32.759Z,57.35
2019-06-26T06:11:37.624Z,50.78
2019-06-26T06:12:41.904Z,51.15
2019-06-26T06:13:46.711Z,50.85
2019-06-26T06:14:50.967Z,52.55
2019-06-26T06:15:55.784Z,52.00
2019-06-26T06:17:00.020Z,53.92
2019-06-26T06:18:04.842Z,50.03
2019-06-26T06:19:09.054Z,49.27
2019-06-26T06:20:15.459Z,51.73
2019-06-26T06:21:19.671Z,51.80
2019-06-26T06:22:27.339Z,51.23
2019-06-26T06:23:30.353Z,48.70
2019-06-26T06:24:35.204Z,47.03
2019-06-26T06:25:39.425Z,49.48
2019-06-26T06:26:44.311Z,47.30
2019-06-26T06:27:48.540Z,50.23
2019-06-26T06:28:53.350Z,49.23
2019-06-26T06:29:57.573Z,52.90
2019-06-26T06:31:02.447Z,49.30
2019-06-26T06:32:06.864Z,52.48
2019-06-26T06:33:11.681Z,48.38
2019-06-26T06:34:15.903Z,48.70
2019-06-26T06:35:20.702Z,47.43
2019-06-26T06:36:24.973Z,49.33
2019-06-26T06:37:29.816Z,48.58
2019-06-26T06:38:34.063Z,51.08
2019-06-26T06:39:38.869Z,53.13
2019-06-26T06:40:43.102Z,53.30
2019-06-26T06:41:47.896Z,48.42
2019-06-26T06:42:52.452Z,48.00
2019-06-26T06:43:57.260Z,47.90
2019-06-26T06:45:01.513Z,48.38
2019-06-26T06:46:06.534Z,46.58
2019-06-26T06:47:10.761Z,46.23
2019-06-26T06:48:15.685Z,46.85
2019-06-26T06:49:19.959Z,49.90
2019-06-26T06:50:24.772Z,48.38
2019-06-26T06:51:29.121Z,47.15
2019-06-26T06:52:33.935Z,45.78
2019-06-26T06:53:38.213Z,46.35
2019-06-26T06:54:43.031Z,46.23
2019-06-26T06:55:47.255Z,46.73
2019-06-26T06:56:52.071Z,45.03
2019-06-26T06:57:56.345Z,45.28
2019-06-26T06:59:01.315Z,48.23
2019-06-26T07:00:05.803Z,42.00
2019-06-26T07:01:10.608Z,43.33
2019-06-26T07:02:14.892Z,45.38
2019-06-26T07:03:19.740Z,44.45
2019-06-26T07:04:23.976Z,43.10
2019-06-26T07:05:28.824Z,43.17
2019-06-26T07:06:33.063Z,39.73
2019-06-26T07:07:37.859Z,38.73
2019-06-26T07:08:42.234Z,38.65
2019-06-26T07:09:47.027Z,42.25
2019-06-26T07:10:51.264Z,40.65
2019-06-26T07:11:56.092Z,37.70
2019-06-26T07:13:00.329Z,42.10
2019-06-26T07:14:05.596Z,37.20
2019-06-26T07:15:09.825Z,36.75
2019-06-26T07:16:14.631Z,38.33
2019-06-26T07:17:21.121Z,40.17
2019-06-26T07:18:25.343Z,36.95
2019-06-26T07:19:29.617Z,40.88
2019-06-26T07:20:34.424Z,46.10
2019-06-26T07:21:38.645Z,38.65
2019-06-26T07:22:43.452Z,43.08
2019-06-26T07:23:47.704Z,41.20
2019-06-26T07:24:52.516Z,40.80
2019-06-26T07:25:56.748Z,36.48
2019-06-26T07:27:01.563Z,39.83
2019-06-26T07:28:05.828Z,40.40
2019-06-26T07:29:10.624Z,42.25
2019-06-26T07:30:14.872Z,38.58
2019-06-26T07:31:19.685Z,39.60
2019-06-26T07:32:23.931Z,35.15
2019-06-26T07:33:28.747Z,34.03
2019-06-26T07:34:33.014Z,38.28
2019-06-26T07:35:37.823Z,39.23
2019-06-26T07:36:42.052Z,40.50
2019-06-26T07:37:46.853Z,39.58
2019-06-26T07:38:51.181Z,40.55
2019-06-26T07:40:01.362Z,39.20
2019-06-26T07:41:02.001Z,40.75
2019-06-26T07:42:06.849Z,37.10
2019-06-26T07:43:11.074Z,37.70
2019-06-26T07:44:15.913Z,40.65
2019-06-26T07:45:23.880Z,40.00
2019-06-26T07:46:26.651Z,38.83
2019-06-26T07:47:42.673Z,39.60
2019-06-26T07:48:37.339Z,36.50
2019-06-26T07:49:41.615Z,38.88
2019-06-26T07:50:46.433Z,39.95
2019-06-26T07:51:50.640Z,38.95
2019-06-26T07:52:55.453Z,39.85
2019-06-26T07:53:59.695Z,35.48
2019-06-26T07:55:04.651Z,39.15
2019-06-26T07:56:08.901Z,38.45
2019-06-26T07:57:13.699Z,38.17
2019-06-26T07:58:17.926Z,35.13
2019-06-26T07:59:22.767Z,35.40
2019-06-26T08:00:31.151Z,40.28
2019-06-26T08:01:33.448Z,33.88
2019-06-26T08:02:37.692Z,35.70
2019-06-26T08:03:42.492Z,43.40
2019-06-26T08:04:46.764Z,49.30
2019-06-26T08:05:51.651Z,36.90
2019-06-26T08:06:55.921Z,39.80
2019-06-26T08:08:00.726Z,36.42
2019-06-26T08:09:05.622Z,38.58
2019-06-26T08:10:10.508Z,40.73
2019-06-26T08:11:14.732Z,36.15
2019-06-26T08:12:19.717Z,38.23
2019-06-26T08:13:23.937Z,36.95
2019-06-26T08:14:28.759Z,34.70
2019-06-26T08:15:33.017Z,37.60
2019-06-26T08:16:37.829Z,39.18
2019-06-26T08:17:58.783Z,36.98
2019-06-26T08:18:48.529Z,37.95
2019-06-26T08:19:52.776Z,37.35
2019-06-26T08:21:11.656Z,38.67
2019-06-26T08:22:03.473Z,36.63
2019-06-26T08:23:08.270Z,39.95
2019-06-26T08:24:12.500Z,39.23
2019-06-26T08:25:17.372Z,35.88
2019-06-26T08:26:21.604Z,36.93
2019-06-26T08:27:26.401Z,35.48
2019-06-26T08:28:30.634Z,35.20
2019-06-26T08:29:35.439Z,36.70
2019-06-26T08:30:39.794Z,37.08
2019-06-26T08:31:44.550Z,35.68
2019-06-26T08:32:48.803Z,39.75
2019-06-26T08:33:53.647Z,39.50
2019-06-26T08:34:57.897Z,36.73
2019-06-26T08:36:02.758Z,37.23
2019-06-26T08:37:06.965Z,35.08
2019-06-26T08:38:15.456Z,36.75
2019-06-26T08:39:17.667Z,39.10
2019-06-26T08:40:22.514Z,33.67
2019-06-26T08:41:26.762Z,35.60
2019-06-26T08:42:31.576Z,36.30
2019-06-26T08:43:35.814Z,38.35
2019-06-26T08:44:40.671Z,41.77
2019-06-26T08:45:44.963Z,41.58
2019-06-26T08:46:49.778Z,41.28
2019-06-26T08:47:54.033Z,39.92
2019-06-26T08:48:58.852Z,40.45
2019-06-26T08:50:03.116Z,38.13
2019-06-26T08:51:07.965Z,37.73
2019-06-26T08:52:12.177Z,36.00
2019-06-26T08:53:17.021Z,39.48
2019-06-26T08:54:21.256Z,38.88
2019-06-26T08:55:26.076Z,38.45
2019-06-26T08:56:30.324Z,37.70
2019-06-26T08:57:35.193Z,40.73
2019-06-26T08:58:39.376Z,40.48
2019-06-26T08:59:44.295Z,40.75
2019-06-26T09:00:48.551Z,37.48
2019-06-26T09:01:53.398Z,38.25
2019-06-26T09:02:57.641Z,38.28
2019-06-26T09:04:02.462Z,35.52
2019-06-26T09:05:06.715Z,37.45
2019-06-26T09:06:11.569Z,35.08
2019-06-26T09:07:15.794Z,38.60
2019-06-26T09:08:20.666Z,36.70
2019-06-26T09:09:24.964Z,41.40
2019-06-26T09:10:29.777Z,36.93
2019-06-26T09:11:34.037Z,38.80
2019-06-26T09:12:38.843Z,38.35
2019-06-26T09:13:43.072Z,37.50
2019-06-26T09:14:47.882Z,40.58
2019-06-26T09:15:52.102Z,40.92
2019-06-26T09:16:56.960Z,39.80
2019-06-26T09:18:01.185Z,41.77
2019-06-26T09:19:06.007Z,38.67
2019-06-26T09:20:12.107Z,40.67
2019-06-26T09:21:16.885Z,42.10
2019-06-26T09:22:21.141Z,39.38
2019-06-26T09:23:25.938Z,37.70
2019-06-26T09:24:30.231Z,38.42
2019-06-26T09:25:35.025Z,40.40
2019-06-26T09:26:39.250Z,34.98
2019-06-26T09:27:44.098Z,37.98
2019-06-26T09:28:48.316Z,40.58
2019-06-26T09:29:53.126Z,38.88
2019-06-26T09:30:57.357Z,39.38
2019-06-26T09:32:02.156Z,43.33
2019-06-26T09:33:06.414Z,41.02
2019-06-26T09:34:11.229Z,38.08
2019-06-26T09:35:15.460Z,37.95
2019-06-26T09:36:20.263Z,42.62
2019-06-26T09:37:24.534Z,42.85
2019-06-26T09:38:29.331Z,38.83
2019-06-26T09:39:33.570Z,38.40
2019-06-26T09:40:38.397Z,38.73
2019-06-26T09:41:42.596Z,39.78
2019-06-26T09:42:47.454Z,39.25
2019-06-26T09:43:51.673Z,40.33
2019-06-26T09:44:56.508Z,38.28
2019-06-26T09:46:00.754Z,40.45
2019-06-26T09:47:05.584Z,39.80
2019-06-26T09:48:09.857Z,36.58
2019-06-26T09:49:14.656Z,43.38
2019-06-26T09:50:18.934Z,40.38
2019-06-26T09:51:23.756Z,41.58
2019-06-26T09:52:28.012Z,37.90
2019-06-26T09:53:46.450Z,35.65
2019-06-26T09:54:38.749Z,39.55
2019-06-26T09:55:43.545Z,42.62
2019-06-26T09:56:47.775Z,42.43
2019-06-26T09:57:52.591Z,43.05
2019-06-26T09:58:56.871Z,41.23
2019-06-26T10:00:01.803Z,43.80
2019-06-26T10:01:06.027Z,43.95
2019-06-26T10:02:10.839Z,41.05
2019-06-26T10:03:15.079Z,40.83
2019-06-26T10:04:19.920Z,41.45
2019-06-26T10:05:24.145Z,42.62
2019-06-26T10:06:28.959Z,41.23
2019-06-26T10:07:33.188Z,44.75
2019-06-26T10:08:38.053Z,44.88
2019-06-26T10:09:42.280Z,45.23
2019-06-26T10:10:47.252Z,42.75
2019-06-26T10:11:51.816Z,45.45
2019-06-26T10:12:56.717Z,41.30
2019-06-26T10:14:00.975Z,41.98
2019-06-26T10:15:06.137Z,43.58
2019-06-26T10:16:10.354Z,43.00
2019-06-26T10:17:15.164Z,44.50
2019-06-26T10:18:19.396Z,43.42
2019-06-26T10:19:24.255Z,41.68
2019-06-26T10:20:28.477Z,45.10
2019-06-26T10:21:33.397Z,41.25
2019-06-26T10:22:37.572Z,41.73
2019-06-26T10:23:42.418Z,38.58
2019-06-26T10:24:46.639Z,42.90
2019-06-26T10:25:51.449Z,39.85
2019-06-26T10:26:55.732Z,39.40
2019-06-26T10:28:00.520Z,39.48
2019-06-26T10:29:04.816Z,41.13
2019-06-26T10:30:10.335Z,37.40
2019-06-26T10:31:18.220Z,37.08
2019-06-26T10:32:21.171Z,37.10
2019-06-26T10:33:25.392Z,36.98
2019-06-26T10:34:30.258Z,34.98
2019-06-26T10:35:34.441Z,35.95
2019-06-26T10:36:39.261Z,33.75
2019-06-26T10:37:43.456Z,34.78
2019-06-26T10:38:48.292Z,31.42
2019-06-26T10:39:52.555Z,33.78
2019-06-26T10:40:57.395Z,33.05
2019-06-26T10:42:01.639Z,32.65
2019-06-26T10:43:06.475Z,30.70
2019-06-26T10:44:17.575Z,34.08
2019-06-26T10:45:35.958Z,34.70
2019-06-26T10:46:38.028Z,40.75
2019-06-26T10:47:42.879Z,68.75
2019-06-26T10:49:07.650Z,32.33
2019-06-26T10:50:12.462Z,35.25
2019-06-26T10:51:16.709Z,36.75
2019-06-26T10:52:21.528Z,36.25
2019-06-26T10:53:25.750Z,33.85
2019-06-26T10:54:30.596Z,32.15
2019-06-26T10:55:34.824Z,33.90
2019-06-26T10:56:39.650Z,34.80
2019-06-26T10:57:43.865Z,33.20
2019-06-26T10:58:48.719Z,34.15
2019-06-26T10:59:55.641Z,33.83
2019-06-26T11:00:59.447Z,30.68
2019-06-26T11:02:03.812Z,31.95
2019-06-26T11:03:08.838Z,30.40
2019-06-26T11:04:13.438Z,32.38
2019-06-26T11:05:18.375Z,31.33
2019-06-26T11:06:22.615Z,32.03
2019-06-26T11:07:27.423Z,33.42
2019-06-26T11:08:31.660Z,32.05
2019-06-26T11:09:36.516Z,29.90
2019-06-26T11:10:40.806Z,28.45
2019-06-26T11:11:45.640Z,29.65
2019-06-26T11:12:49.843Z,31.65
2019-06-26T11:13:54.676Z,29.55
2019-06-26T11:14:58.937Z,28.25
2019-06-26T11:16:03.746Z,27.37
2019-06-26T11:17:07.995Z,32.30
2019-06-26T11:18:12.908Z,30.20
2019-06-26T11:19:17.163Z,33.78
2019-06-26T11:20:22.054Z,30.12
2019-06-26T11:21:26.294Z,34.55
2019-06-26T11:22:31.115Z,34.30
2019-06-26T11:23:35.350Z,33.20
2019-06-26T11:24:40.295Z,33.25
2019-06-26T11:25:44.810Z,32.88
2019-06-26T11:26:49.661Z,36.33
2019-06-26T11:27:53.887Z,35.15
2019-06-26T11:28:58.699Z,37.28
2019-06-26T11:30:02.998Z,38.02
2019-06-26T11:31:07.979Z,36.83
2019-06-26T11:32:12.243Z,37.10
2019-06-26T11:33:17.043Z,36.73
2019-06-26T11:34:21.304Z,38.25
2019-06-26T11:35:26.186Z,36.30
2019-06-26T11:36:30.459Z,37.38
2019-06-26T11:37:35.240Z,36.30
2019-06-26T11:38:39.495Z,37.33
2019-06-26T11:39:44.326Z,38.73
2019-06-26T11:40:48.832Z,36.10
2019-06-26T11:41:53.647Z,33.23
2019-06-26T11:42:57.909Z,37.08
2019-06-26T11:44:02.843Z,41.02
2019-06-26T11:45:07.222Z,38.85
2019-06-26T11:46:12.067Z,38.23
2019-06-26T11:47:16.276Z,35.78
2019-06-26T11:48:21.088Z,34.67
2019-06-26T11:49:25.304Z,34.58
2019-06-26T11:50:30.162Z,38.80
2019-06-26T11:51:34.455Z,32.73
2019-06-26T11:52:39.296Z,32.73
2019-06-26T11:53:43.530Z,36.73
2019-06-26T11:55:01.384Z,32.90
2019-06-26T11:55:54.248Z,32.40
2019-06-26T11:56:59.045Z,35.95
2019-06-26T11:58:03.416Z,32.28
2019-06-26T11:59:08.248Z,32.08
2019-06-26T12:00:12.535Z,34.03
2019-06-26T12:01:17.365Z,31.77
2019-06-26T12:02:21.604Z,29.50
2019-06-26T12:03:26.423Z,31.40
2019-06-26T12:04:30.658Z,33.28
2019-06-26T12:05:35.500Z,31.75
2019-06-26T12:06:39.716Z,30.97
2019-06-26T12:07:44.539Z,31.48
2019-06-26T12:08:49.599Z,28.38
2019-06-26T12:09:54.509Z,26.57
2019-06-26T12:10:59.239Z,28.87
2019-06-26T12:12:04.064Z,28.25
2019-06-26T12:13:08.323Z,26.95
2019-06-26T12:14:13.132Z,27.58
2019-06-26T12:15:17.648Z,25.52
2019-06-26T12:16:22.535Z,26.37
2019-06-26T12:17:26.813Z,20.88
2019-06-26T12:18:31.625Z,21.82
2019-06-26T12:19:35.841Z,21.05
2019-06-26T12:20:40.925Z,23.42
2019-06-26T12:21:45.166Z,22.90
2019-06-26T12:22:50.192Z,20.10
2019-06-26T12:23:54.400Z,20.32
2019-06-26T12:24:59.224Z,21.60
2019-06-26T12:26:03.475Z,23.32
2019-06-26T12:27:08.302Z,20.55
2019-06-26T12:28:12.521Z,17.90
2019-06-26T12:29:17.504Z,22.60
2019-06-26T12:30:21.995Z,20.52
2019-06-26T12:31:26.873Z,19.32
2019-06-26T12:32:31.115Z,19.65
2019-06-26T12:33:35.984Z,19.05
2019-06-26T12:34:40.235Z,18.12
2019-06-26T12:35:45.221Z,18.45
2019-06-26T12:36:49.578Z,18.20
2019-06-26T12:37:54.466Z,15.30
2019-06-26T12:38:58.828Z,14.53
2019-06-26T12:40:03.839Z,12.43
2019-06-26T12:41:10.935Z,13.98
2019-06-26T12:42:18.758Z,14.23
2019-06-26T12:43:26.102Z,12.93
2019-06-26T12:44:31.186Z,12.28
2019-06-26T12:45:35.613Z,12.68
2019-06-26T12:46:43.246Z,11.90
2019-06-26T12:47:47.627Z,11.68
2019-06-26T12:48:52.562Z,11.43
2019-06-26T12:49:56.983Z,12.30
2019-06-26T12:51:03.650Z,12.43
2019-06-26T12:52:07.979Z,12.73
2019-06-26T12:53:15.576Z,13.08
2019-06-26T12:54:20.060Z,12.23
2019-06-26T12:55:24.953Z,11.30
2019-06-26T12:56:29.195Z,9.78
2019-06-26T12:57:34.000Z,11.25
2019-06-26T12:58:38.229Z,10.35
2019-06-26T12:59:56.601Z,9.98
2019-06-26T13:00:48.935Z,9.28
2019-06-26T13:01:53.844Z,9.68
2019-06-26T13:02:58.157Z,9.53
2019-06-26T13:04:03.105Z,8.63
2019-06-26T13:05:07.365Z,7.08
2019-06-26T13:06:12.210Z,8.05
2019-06-26T13:07:16.455Z,8.78
2019-06-26T13:08:21.404Z,7.92
2019-06-26T13:09:25.616Z,7.37
2019-06-26T13:10:30.436Z,9.70
2019-06-26T13:11:34.694Z,9.05
2019-06-26T13:12:39.483Z,9.23
2019-06-26T13:13:43.744Z,8.60
2019-06-26T13:14:48.547Z,7.83
2019-06-26T13:15:52.773Z,8.40
2019-06-26T13:16:57.612Z,9.20
2019-06-26T13:18:01.832Z,9.55
2019-06-26T13:19:06.632Z,8.65
2019-06-26T13:20:10.886Z,8.18
2019-06-26T13:21:15.751Z,7.37
2019-06-26T13:22:20.012Z,8.03
2019-06-26T13:23:24.813Z,7.50
2019-06-26T13:24:29.042Z,6.97
2019-06-26T13:25:33.833Z,7.17
2019-06-26T13:26:38.103Z,7.10
2019-06-26T13:27:42.884Z,7.20
2019-06-26T13:28:47.109Z,8.10
2019-06-26T13:29:51.948Z,7.50
2019-06-26T13:30:56.174Z,7.60
2019-06-26T13:32:01.033Z,7.15
2019-06-26T13:33:05.244Z,7.28
2019-06-26T13:34:10.093Z,6.37
2019-06-26T13:35:14.257Z,7.25
2019-06-26T13:36:19.080Z,7.17
2019-06-26T13:37:23.337Z,7.15
2019-06-26T13:38:28.135Z,7.53
2019-06-26T13:39:32.376Z,6.87
2019-06-26T13:40:40.672Z,7.35
2019-06-26T13:41:43.084Z,6.90
2019-06-26T13:42:47.896Z,7.87
2019-06-26T13:43:52.103Z,6.70
2019-06-26T13:44:56.910Z,6.55
2019-06-26T13:46:01.167Z,6.97
2019-06-26T13:47:05.987Z,6.70
2019-06-26T13:48:10.221Z,6.17
2019-06-26T13:49:16.637Z,7.22
2019-06-26T13:50:21.247Z,6.87
2019-06-26T13:51:26.066Z,6.83
2019-06-26T13:52:30.317Z,6.85
2019-06-26T13:53:35.149Z,6.40
2019-06-26T13:54:39.367Z,6.40